Pricedale, Pennsylvania
Current Conditions -  °F | °C
As of 11:53 PM on Monday 26 Jan 2015 (Local Time) from KAGC Reporting Station
Overcast Overcast  
Wind Chill: -13°   Ceiling: 1000
Heat Index: -7°   Visibility: 10mi
Dew Point: -10°   Wind: 9mph
Humidity: 78%   Direction: 320°NW
Pressure: 29.82"   Gusts: NA
Location:  40.13°N, 79.84°W
Report Text: KAGC 270453Z 32008KT 10SM BKN010 OVC026 M07/M10 A2982 RMK AO2 SLP120 T10671100 410061067
Loading
Personal Weather Stations






























Interactive Weather Map New forecast layout! Learn more

10-Day Weather Forecast

Advertisements
Track Severe Weather on mobile